createdAt,value
2019-05-18T00:00:40.181Z,100.00
2019-05-18T00:03:12.140Z,100.00
2019-05-18T00:05:44.129Z,100.00
2019-05-18T00:08:16.012Z,100.00
2019-05-18T00:10:47.340Z,100.00
2019-05-18T00:13:20.280Z,100.00
2019-05-18T00:15:52.138Z,100.00
2019-05-18T00:18:24.080Z,100.00
2019-05-18T00:20:55.309Z,100.00
2019-05-18T00:23:27.066Z,100.00
2019-05-18T00:25:59.099Z,100.00
2019-05-18T00:28:31.008Z,100.00
2019-05-18T00:31:02.976Z,100.00
2019-05-18T00:33:36.544Z,100.00
2019-05-18T00:36:08.691Z,100.00
2019-05-18T00:38:40.737Z,100.00
2019-05-18T00:41:12.623Z,100.00
2019-05-18T00:43:44.505Z,100.00
2019-05-18T00:46:18.690Z,100.00
2019-05-18T00:48:50.670Z,100.00
2019-05-18T00:51:23.398Z,100.00
2019-05-18T00:53:56.408Z,100.00
2019-05-18T00:56:28.449Z,100.00
2019-05-18T00:59:00.283Z,100.00
2019-05-18T01:01:32.253Z,100.00
2019-05-18T01:04:04.152Z,100.00
2019-05-18T01:06:36.007Z,100.00
2019-05-18T01:09:08.820Z,100.00
2019-05-18T01:11:40.674Z,100.00
2019-05-18T01:14:12.702Z,100.00
2019-05-18T01:16:44.588Z,100.00
2019-05-18T01:19:16.516Z,100.00
2019-05-18T01:21:48.437Z,100.00
2019-05-18T01:24:21.310Z,100.00
2019-05-18T01:26:53.146Z,100.00
2019-05-18T01:29:25.035Z,100.00
2019-05-18T01:31:57.861Z,100.00
2019-05-18T01:34:29.831Z,100.00
2019-05-18T01:37:01.719Z,100.00
2019-05-18T01:39:33.780Z,100.00
2019-05-18T01:42:05.733Z,100.00
2019-05-18T01:44:37.674Z,100.00
2019-05-18T01:47:08.943Z,100.00
2019-05-18T01:49:40.823Z,100.00
2019-05-18T01:52:12.785Z,100.00
2019-05-18T01:54:44.745Z,100.00
2019-05-18T01:57:16.727Z,100.00
2019-05-18T01:59:48.753Z,100.00
2019-05-18T02:02:20.813Z,100.00
2019-05-18T02:04:52.728Z,100.00
2019-05-18T02:07:24.753Z,100.00
2019-05-18T02:09:57.713Z,100.00
2019-05-18T02:12:29.584Z,100.00
2019-05-18T02:15:01.658Z,100.00
2019-05-18T02:17:33.624Z,100.00
2019-05-18T02:20:05.809Z,100.00
2019-05-18T02:22:37.667Z,100.00
2019-05-18T02:25:10.966Z,100.00
2019-05-18T02:27:42.886Z,100.00
2019-05-18T02:30:17.511Z,100.00
2019-05-18T02:32:48.749Z,100.00
2019-05-18T02:35:20.683Z,100.00
2019-05-18T02:37:54.229Z,100.00
2019-05-18T02:40:26.198Z,100.00
2019-05-18T02:42:57.443Z,100.00
2019-05-18T02:45:29.343Z,100.00
2019-05-18T02:48:01.233Z,100.00
2019-05-18T02:50:33.117Z,100.00
2019-05-18T02:53:05.068Z,100.00
2019-05-18T02:55:36.326Z,100.00
2019-05-18T02:58:10.267Z,100.00
2019-05-18T03:00:42.329Z,100.00
2019-05-18T03:03:14.308Z,100.00
2019-05-18T03:05:47.275Z,100.00
2019-05-18T03:08:19.213Z,100.00
2019-05-18T03:11:16.092Z,100.00
2019-05-18T03:13:50.199Z,100.00
2019-05-18T03:16:21.551Z,100.00
2019-05-18T03:19:07.535Z,100.00
2019-05-18T03:21:27.045Z,100.00
2019-05-18T03:23:58.959Z,100.00
2019-05-18T03:26:30.796Z,100.00
2019-05-18T03:29:02.719Z,100.00
2019-05-18T03:31:34.732Z,100.00
2019-05-18T03:34:06.802Z,100.00
2019-05-18T03:36:38.875Z,100.00
2019-05-18T03:39:10.376Z,100.00
2019-05-18T03:41:42.217Z,100.00
2019-05-18T03:44:14.158Z,100.00
2019-05-18T03:46:46.081Z,100.00
2019-05-18T03:50:36.818Z,100.00
2019-05-18T03:53:54.773Z,100.00
2019-05-18T03:56:31.080Z,100.00
2019-05-18T03:59:03.193Z,100.00
2019-05-18T04:01:35.250Z,100.00
2019-05-18T04:04:09.976Z,100.00
2019-05-18T04:06:42.092Z,100.00
2019-05-18T04:09:14.166Z,100.00
2019-05-18T04:11:46.301Z,100.00
2019-05-18T04:14:18.459Z,100.00
2019-05-18T04:16:50.505Z,100.00
2019-05-18T04:19:22.419Z,100.00
2019-05-18T04:21:54.366Z,100.00
2019-05-18T04:24:28.892Z,100.00
2019-05-18T04:27:00.741Z,100.00
2019-05-18T04:29:32.588Z,100.00
2019-05-18T04:32:04.540Z,100.00
2019-05-18T04:34:39.279Z,100.00
2019-05-18T04:37:11.236Z,100.00
2019-05-18T04:39:43.114Z,100.00
2019-05-18T04:42:16.188Z,100.00
2019-05-18T04:44:48.336Z,100.00
2019-05-18T04:47:21.160Z,100.00
2019-05-18T04:50:04.634Z,100.00
2019-05-18T04:52:26.640Z,100.00
2019-05-18T04:54:58.471Z,100.00
2019-05-18T04:57:34.849Z,100.00
2019-05-18T05:00:07.647Z,100.00
2019-05-18T05:02:39.512Z,100.00
2019-05-18T05:05:11.485Z,100.00
2019-05-18T05:07:43.371Z,100.00
2019-05-18T05:10:15.271Z,100.00
2019-05-18T05:12:47.385Z,100.00
2019-05-18T05:15:19.555Z,100.00
2019-05-18T05:17:51.557Z,100.00
2019-05-18T05:20:22.874Z,100.00
2019-05-18T05:22:54.693Z,100.00
2019-05-18T05:25:26.587Z,100.00
2019-05-18T05:27:58.566Z,100.00
2019-05-18T05:30:30.437Z,100.00
2019-05-18T05:33:02.395Z,100.00
2019-05-18T05:35:37.633Z,100.00
2019-05-18T05:38:08.733Z,100.00
2019-05-18T05:40:40.598Z,100.00
2019-05-18T05:43:18.410Z,100.00
2019-05-18T05:45:50.516Z,100.00
2019-05-18T05:48:21.717Z,100.00
2019-05-18T05:50:53.520Z,100.00
2019-05-18T05:53:25.368Z,100.00
2019-05-18T05:55:57.276Z,100.00
2019-05-18T05:58:28.640Z,100.00
2019-05-18T06:01:00.448Z,100.00
2019-05-18T06:03:32.298Z,100.00
2019-05-18T06:06:04.182Z,100.00
2019-05-18T06:08:36.001Z,100.00
2019-05-18T06:11:07.844Z,100.00
2019-05-18T06:13:39.715Z,100.00
2019-05-18T06:16:12.103Z,100.00
2019-05-18T06:18:43.931Z,96.46
2019-05-18T06:21:15.803Z,99.15
2019-05-18T06:23:46.987Z,95.44
2019-05-18T06:26:18.847Z,82.95
2019-05-18T06:28:50.715Z,84.33
2019-05-18T06:31:23.300Z,80.56
2019-05-18T06:33:56.262Z,79.98
2019-05-18T06:36:28.037Z,81.11
2019-05-18T06:39:00.019Z,81.21
2019-05-18T06:41:31.887Z,83.30
2019-05-18T06:44:04.471Z,81.45
2019-05-18T06:46:36.457Z,77.43
2019-05-18T06:49:07.635Z,78.38
2019-05-18T06:51:39.398Z,79.09
2019-05-18T06:54:11.332Z,77.97
2019-05-18T06:56:44.315Z,73.40
2019-05-18T06:59:17.783Z,75.87
2019-05-18T07:01:49.666Z,76.17
2019-05-18T07:04:21.123Z,71.84
2019-05-18T07:06:52.891Z,73.46
2019-05-18T07:09:24.831Z,71.78
2019-05-18T07:11:56.680Z,70.08
2019-05-18T07:14:27.818Z,70.75
2019-05-18T07:16:59.625Z,70.91
2019-05-18T07:19:35.631Z,67.69
2019-05-18T07:22:07.464Z,67.40
2019-05-18T07:24:39.297Z,69.07
2019-05-18T07:27:11.243Z,70.36
2019-05-18T07:29:43.091Z,70.43
2019-05-18T07:32:15.012Z,70.42
2019-05-18T07:34:46.785Z,66.45
2019-05-18T07:37:18.692Z,67.79
2019-05-18T07:39:50.549Z,64.32
2019-05-18T07:42:21.791Z,65.48
2019-05-18T07:44:53.645Z,66.40
2019-05-18T07:47:25.491Z,66.68
2019-05-18T07:49:57.350Z,66.31
2019-05-18T07:52:29.120Z,65.97
2019-05-18T07:55:01.087Z,62.24
2019-05-18T07:57:33.082Z,64.65
2019-05-18T08:00:04.532Z,61.54
2019-05-18T08:02:36.452Z,62.58
2019-05-18T08:05:09.214Z,61.22
2019-05-18T08:07:41.118Z,62.92
2019-05-18T08:10:14.706Z,58.96
2019-05-18T08:12:46.509Z,60.30
2019-05-18T08:15:18.776Z,57.31
2019-05-18T08:17:50.612Z,59.79
2019-05-18T08:20:22.454Z,60.15
2019-05-18T08:22:54.310Z,59.55
2019-05-18T08:25:26.203Z,59.69
2019-05-18T08:27:58.070Z,59.37
2019-05-18T08:30:29.891Z,58.09
2019-05-18T08:33:01.708Z,57.58
2019-05-18T08:35:33.608Z,57.96
2019-05-18T08:38:05.475Z,58.26
2019-05-18T08:40:37.671Z,57.61
2019-05-18T08:43:09.466Z,56.63
2019-05-18T08:45:41.284Z,53.75
2019-05-18T08:48:13.187Z,54.58
2019-05-18T08:50:44.980Z,54.48
2019-05-18T08:53:16.838Z,55.15
2019-05-18T08:55:48.644Z,55.00
2019-05-18T08:58:20.594Z,53.59
2019-05-18T09:00:52.448Z,52.71
2019-05-18T09:03:24.347Z,49.72
2019-05-18T09:05:56.239Z,52.17
2019-05-18T09:08:27.350Z,51.60
2019-05-18T09:10:59.147Z,52.40
2019-05-18T09:13:31.033Z,51.13
2019-05-18T09:16:02.948Z,50.67
2019-05-18T09:18:34.766Z,48.67
2019-05-18T09:21:06.732Z,49.26
2019-05-18T09:23:38.582Z,47.48
2019-05-18T09:26:10.475Z,49.32
2019-05-18T09:28:42.265Z,49.52
2019-05-18T09:31:14.178Z,48.84
2019-05-18T09:33:45.997Z,46.66
2019-05-18T09:36:17.904Z,46.86
2019-05-18T09:38:49.863Z,47.70
2019-05-18T09:41:21.812Z,46.23
2019-05-18T09:43:53.755Z,42.88
2019-05-18T09:46:25.676Z,45.27
2019-05-18T09:48:57.657Z,45.78
2019-05-18T09:51:29.639Z,46.70
2019-05-18T09:54:01.569Z,46.45
2019-05-18T09:56:33.725Z,45.57
2019-05-18T09:59:05.844Z,46.15
2019-05-18T10:01:37.913Z,46.11
2019-05-18T10:04:09.914Z,43.46
2019-05-18T10:06:41.141Z,45.32
2019-05-18T10:09:13.136Z,45.43
2019-05-18T10:11:47.775Z,46.06
2019-05-18T10:14:20.624Z,45.00
2019-05-18T10:16:52.519Z,43.55
2019-05-18T10:19:24.553Z,43.61
2019-05-18T10:21:56.546Z,44.38
2019-05-18T10:24:28.651Z,43.81
2019-05-18T10:26:59.974Z,44.12
2019-05-18T10:29:31.800Z,44.24
2019-05-18T10:32:03.827Z,44.38
2019-05-18T10:34:35.876Z,44.46
2019-05-18T10:37:08.109Z,44.01
2019-05-18T10:39:40.084Z,43.10
2019-05-18T10:42:12.069Z,43.37
2019-05-18T10:44:44.022Z,42.40
2019-05-18T10:47:16.207Z,42.33
2019-05-18T10:49:48.099Z,44.28
2019-05-18T10:52:20.026Z,44.64
2019-05-18T10:54:51.976Z,44.49
2019-05-18T10:57:23.973Z,44.52
2019-05-18T10:59:55.944Z,42.87
2019-05-18T11:02:27.885Z,43.55
2019-05-18T11:04:59.898Z,43.78
2019-05-18T11:07:31.799Z,44.35
2019-05-18T11:10:03.713Z,44.40
2019-05-18T11:12:35.873Z,43.03
2019-05-18T11:15:10.369Z,44.42
2019-05-18T11:17:41.678Z,42.95
2019-05-18T11:20:14.578Z,43.49
2019-05-18T11:22:46.532Z,43.80
2019-05-18T11:25:19.691Z,43.88
2019-05-18T11:27:51.633Z,43.44
2019-05-18T11:30:25.801Z,42.82
2019-05-18T11:33:00.901Z,42.57
2019-05-18T11:35:36.897Z,43.01
2019-05-18T11:38:10.480Z,41.85
2019-05-18T11:40:43.973Z,42.84
2019-05-18T11:43:16.662Z,42.48
2019-05-18T11:45:56.396Z,42.68
2019-05-18T11:48:31.293Z,41.47
2019-05-18T11:51:03.321Z,41.65
2019-05-18T11:53:35.381Z,41.92
2019-05-18T11:56:07.457Z,41.66
2019-05-18T12:01:41.989Z,41.91
2019-05-18T12:04:13.873Z,41.13
2019-05-18T12:06:45.704Z,42.10
2019-05-18T12:09:17.592Z,42.61
2019-05-18T12:11:49.604Z,42.63
2019-05-18T12:14:21.407Z,42.80
2019-05-18T12:16:54.211Z,42.84
2019-05-18T12:19:26.033Z,43.10
2019-05-18T12:21:57.936Z,42.54
2019-05-18T12:24:29.967Z,42.70
2019-05-18T12:27:01.825Z,43.17
2019-05-18T12:29:33.784Z,42.90
2019-05-18T12:32:05.679Z,42.46
2019-05-18T12:34:37.564Z,43.36
2019-05-18T12:37:11.311Z,43.30
2019-05-18T12:39:43.220Z,43.41
2019-05-18T12:42:15.021Z,43.38
2019-05-18T12:44:46.976Z,43.49
2019-05-18T12:47:18.870Z,42.94
2019-05-18T12:49:52.161Z,42.24
2019-05-18T12:52:24.000Z,43.01
2019-05-18T12:54:55.841Z,42.44
2019-05-18T12:57:30.610Z,42.49
2019-05-18T13:00:02.470Z,43.25
2019-05-18T13:02:34.405Z,42.92
2019-05-18T13:05:06.236Z,42.57
2019-05-18T13:07:37.392Z,42.87
2019-05-18T13:10:10.789Z,43.20
2019-05-18T13:12:42.647Z,43.10
2019-05-18T13:15:14.964Z,43.41
2019-05-18T13:17:46.793Z,42.86
2019-05-18T13:20:19.666Z,42.85
2019-05-18T13:22:51.306Z,42.65
2019-05-18T13:25:23.214Z,42.95
2019-05-18T13:27:55.156Z,43.03
2019-05-18T13:30:26.539Z,43.33
2019-05-18T13:32:58.352Z,43.16
2019-05-18T13:35:30.236Z,43.11
2019-05-18T13:38:02.241Z,43.11
2019-05-18T13:40:34.067Z,43.26
2019-05-18T13:43:06.404Z,43.01
2019-05-18T13:45:38.348Z,42.57
2019-05-18T13:48:10.160Z,42.55
2019-05-18T13:50:44.774Z,42.63
2019-05-18T13:53:15.708Z,42.72
2019-05-18T13:55:46.866Z,42.64
2019-05-18T13:58:18.724Z,42.52
2019-05-18T14:00:49.913Z,42.29
2019-05-18T14:03:21.680Z,42.15
2019-05-18T14:05:56.630Z,42.38
2019-05-18T14:08:28.452Z,42.28
2019-05-18T14:11:00.270Z,42.34
2019-05-18T14:13:32.114Z,42.25
2019-05-18T14:16:03.336Z,42.37
2019-05-18T14:18:35.193Z,42.41
2019-05-18T14:21:07.035Z,42.24
2019-05-18T14:23:38.900Z,42.49
2019-05-18T14:26:10.081Z,42.11
2019-05-18T14:28:41.185Z,41.83
2019-05-18T14:31:13.027Z,42.13
2019-05-18T14:33:45.042Z,42.22
2019-05-18T14:36:16.903Z,42.29
2019-05-18T14:38:58.375Z,41.94
2019-05-18T14:41:30.187Z,41.73
2019-05-18T14:44:01.971Z,41.40
2019-05-18T14:46:33.906Z,40.70
2019-05-18T14:49:08.091Z,40.68
2019-05-18T14:51:40.841Z,40.80
2019-05-18T14:54:12.697Z,40.99
2019-05-18T14:56:44.551Z,41.08
2019-05-18T14:59:16.336Z,41.17
2019-05-18T15:01:48.492Z,41.33
2019-05-18T15:04:19.553Z,41.32
2019-05-18T15:06:50.866Z,41.19
2019-05-18T15:09:22.551Z,41.06
2019-05-18T15:11:54.381Z,40.64
2019-05-18T15:14:26.736Z,40.82
2019-05-18T15:16:58.543Z,41.34
2019-05-18T15:19:30.455Z,41.71
2019-05-18T15:22:03.327Z,41.17
2019-05-18T15:24:35.165Z,41.22
2019-05-18T15:27:06.970Z,41.18
2019-05-18T15:29:38.827Z,41.04
2019-05-18T15:32:10.017Z,40.66
2019-05-18T15:34:41.829Z,40.59
2019-05-18T15:37:13.653Z,40.62
2019-05-18T15:39:45.428Z,40.79
2019-05-18T15:42:17.303Z,40.68
2019-05-18T15:44:49.221Z,40.40
2019-05-18T15:47:20.538Z,40.59
2019-05-18T15:49:53.309Z,40.74
2019-05-18T15:52:25.208Z,40.64
2019-05-18T15:54:56.441Z,40.73
2019-05-18T15:57:28.222Z,40.55
2019-05-18T16:00:00.161Z,40.50
2019-05-18T16:02:32.058Z,40.53
2019-05-18T16:05:04.073Z,40.69
2019-05-18T16:07:36.115Z,40.70
2019-05-18T16:10:08.684Z,40.41
2019-05-18T16:12:40.561Z,40.43
2019-05-18T16:15:12.273Z,40.16
2019-05-18T16:17:44.042Z,40.26
2019-05-18T16:20:16.594Z,39.92
2019-05-18T16:22:48.514Z,40.06
2019-05-18T16:25:19.667Z,39.66
2019-05-18T16:27:52.274Z,39.74
2019-05-18T16:30:24.290Z,39.58
2019-05-18T16:32:56.146Z,39.41
2019-05-18T16:35:28.050Z,39.45
2019-05-18T16:37:59.936Z,39.42
2019-05-18T16:40:31.806Z,39.10
2019-05-18T16:43:04.009Z,39.18
2019-05-18T16:45:35.928Z,39.03
2019-05-18T16:48:07.796Z,39.53
2019-05-18T16:50:39.567Z,39.45
2019-05-18T16:53:10.741Z,39.69
2019-05-18T16:55:42.475Z,39.79
2019-05-18T16:58:13.676Z,39.37
2019-05-18T17:00:44.810Z,39.77
2019-05-18T17:03:16.532Z,39.61
2019-05-18T17:05:48.375Z,39.33
2019-05-18T17:08:20.246Z,39.51
2019-05-18T17:10:52.427Z,39.42
2019-05-18T17:13:23.611Z,39.06
2019-05-18T17:15:55.345Z,39.30
2019-05-18T17:18:27.223Z,39.42
2019-05-18T17:20:59.032Z,38.82
2019-05-18T17:23:31.004Z,38.72
2019-05-18T17:26:02.817Z,37.96
2019-05-18T17:28:34.792Z,38.83
2019-05-18T17:31:06.588Z,39.25
2019-05-18T17:33:38.396Z,39.20
2019-05-18T17:36:10.229Z,38.49
2019-05-18T17:38:42.022Z,38.71
2019-05-18T17:41:13.881Z,38.94
2019-05-18T17:43:45.784Z,38.46
2019-05-18T17:46:17.023Z,38.44
2019-05-18T17:48:50.011Z,38.68
2019-05-18T17:51:22.815Z,38.75
2019-05-18T17:53:54.605Z,38.92
2019-05-18T17:56:26.485Z,38.43
2019-05-18T17:58:58.391Z,38.80
2019-05-18T18:01:30.264Z,39.52
2019-05-18T18:04:02.077Z,39.52
2019-05-18T18:06:34.100Z,39.90
2019-05-18T18:09:08.010Z,40.17
2019-05-18T18:11:39.927Z,40.75
2019-05-18T18:14:11.960Z,41.48
2019-05-18T18:16:43.892Z,42.39
2019-05-18T18:19:15.782Z,42.86
2019-05-18T18:21:47.908Z,43.56
2019-05-18T18:24:19.166Z,44.02
2019-05-18T18:26:51.047Z,44.58
2019-05-18T18:29:22.903Z,45.44
2019-05-18T18:31:54.711Z,45.90
2019-05-18T18:34:26.597Z,46.26
2019-05-18T18:37:08.652Z,46.55
2019-05-18T18:39:42.834Z,46.84
2019-05-18T18:42:15.028Z,47.12
2019-05-18T18:44:47.036Z,47.56
2019-05-18T18:47:19.158Z,48.06
2019-05-18T18:49:51.132Z,48.50
2019-05-18T18:52:22.765Z,48.96
2019-05-18T18:54:59.203Z,49.46
2019-05-18T18:57:40.640Z,49.88
2019-05-18T19:00:04.386Z,50.51
2019-05-18T19:02:35.958Z,50.83
2019-05-18T19:05:09.571Z,51.18
2019-05-18T19:07:41.359Z,52.19
2019-05-18T19:10:13.996Z,52.20
2019-05-18T19:12:46.406Z,53.06
2019-05-18T19:15:18.136Z,53.56
2019-05-18T19:17:52.101Z,54.04
2019-05-18T19:20:28.726Z,53.93
2019-05-18T19:23:02.474Z,54.46
2019-05-18T19:25:36.386Z,54.67
2019-05-18T19:28:07.934Z,56.44
2019-05-18T19:30:40.058Z,56.50
2019-05-18T19:33:14.004Z,56.79
2019-05-18T19:35:46.596Z,58.64
2019-05-18T19:38:20.290Z,57.85
2019-05-18T19:40:55.632Z,57.32
2019-05-18T19:43:28.003Z,56.57
2019-05-18T19:45:59.655Z,56.98
2019-05-18T19:48:31.613Z,57.80
2019-05-18T19:51:06.619Z,58.03
2019-05-18T19:53:39.749Z,58.05
2019-05-18T19:56:11.713Z,58.09
2019-05-18T19:58:50.118Z,58.37
2019-05-18T20:01:21.963Z,58.45
2019-05-18T20:03:54.723Z,58.28
2019-05-18T20:06:25.954Z,58.61
2019-05-18T20:08:57.211Z,58.94
2019-05-18T20:11:29.431Z,59.75
2019-05-18T20:14:01.788Z,60.66
2019-05-18T20:16:35.088Z,61.27
2019-05-18T20:19:08.507Z,62.71
2019-05-18T20:21:39.829Z,63.25
2019-05-18T20:24:13.702Z,62.72
2019-05-18T20:26:46.691Z,64.44
2019-05-18T20:29:19.015Z,63.96
2019-05-18T20:31:51.276Z,64.92
2019-05-18T20:34:23.142Z,64.26
2019-05-18T20:36:58.971Z,63.65
2019-05-18T20:39:34.143Z,63.21
2019-05-18T20:42:06.581Z,63.13
2019-05-18T20:44:38.073Z,63.18
2019-05-18T20:47:11.900Z,63.37
2019-05-18T20:49:46.388Z,63.44
2019-05-18T20:52:21.321Z,63.46
2019-05-18T20:54:52.645Z,63.90
2019-05-18T20:57:26.578Z,64.00
2019-05-18T20:59:58.157Z,64.42
2019-05-18T21:02:31.643Z,64.44
2019-05-18T21:05:03.920Z,64.62
2019-05-18T21:07:36.922Z,64.96
2019-05-18T21:10:09.380Z,65.34
2019-05-18T21:12:42.630Z,65.37
2019-05-18T21:15:17.585Z,66.39
2019-05-18T21:17:49.807Z,65.94
2019-05-18T21:20:21.828Z,65.86
2019-05-18T21:22:53.843Z,66.24
2019-05-18T21:25:25.759Z,66.65
2019-05-18T21:27:57.817Z,66.75
2019-05-18T21:30:29.762Z,67.07
2019-05-18T21:33:02.009Z,67.47
2019-05-18T21:35:34.549Z,67.52
2019-05-18T21:38:05.848Z,67.64
2019-05-18T21:40:38.145Z,68.16
2019-05-18T21:43:10.365Z,68.59
2019-05-18T21:45:45.376Z,69.13
2019-05-18T21:48:17.283Z,69.88
2019-05-18T21:50:49.168Z,71.20
2019-05-18T21:53:21.098Z,71.88
2019-05-18T21:55:52.952Z,72.67
2019-05-18T21:58:24.124Z,72.59
2019-05-18T22:00:55.913Z,72.64
2019-05-18T22:03:27.184Z,72.72
2019-05-18T22:05:59.042Z,72.83
2019-05-18T22:08:30.464Z,72.87
2019-05-18T22:11:01.642Z,73.33
2019-05-18T22:13:33.534Z,73.18
2019-05-18T22:16:04.733Z,72.91
2019-05-18T22:18:36.566Z,73.00
2019-05-18T22:21:07.803Z,73.09
2019-05-18T22:23:40.555Z,73.29
2019-05-18T22:26:12.415Z,73.94
2019-05-18T22:28:44.214Z,73.74
2019-05-18T22:31:19.472Z,73.39
2019-05-18T22:33:49.547Z,74.14
2019-05-18T22:36:21.415Z,73.89
2019-05-18T22:38:54.424Z,75.76
2019-05-18T22:41:26.251Z,76.00
2019-05-18T22:43:58.083Z,76.33
2019-05-18T22:46:29.959Z,76.40
2019-05-18T22:49:01.827Z,77.03
2019-05-18T22:51:33.619Z,77.28
2019-05-18T22:54:04.865Z,79.26
2019-05-18T22:56:36.603Z,79.30
2019-05-18T22:59:08.382Z,78.69
2019-05-18T23:01:40.248Z,78.92
2019-05-18T23:04:12.135Z,78.73
2019-05-18T23:06:43.972Z,79.06
2019-05-18T23:09:15.766Z,79.86
2019-05-18T23:11:47.639Z,79.03
2019-05-18T23:14:19.784Z,79.79
2019-05-18T23:16:51.583Z,79.61
2019-05-18T23:19:23.479Z,80.39
2019-05-18T23:21:55.288Z,80.36
2019-05-18T23:24:27.098Z,80.08
2019-05-18T23:26:58.886Z,80.60
2019-05-18T23:29:30.732Z,80.85
2019-05-18T23:32:02.550Z,80.44
2019-05-18T23:34:34.453Z,80.63
2019-05-18T23:37:06.257Z,80.77
2019-05-18T23:39:38.055Z,80.36
2019-05-18T23:42:09.892Z,80.96
2019-05-18T23:44:41.725Z,81.42
2019-05-18T23:47:13.645Z,82.29
2019-05-18T23:49:45.525Z,83.19
2019-05-18T23:52:17.341Z,83.61
2019-05-18T23:54:49.171Z,83.26
2019-05-18T23:57:22.111Z,83.26
2019-05-18T23:59:54.004Z,82.99
